sensor_id;sensor_type;location;lat;lon;timestamp;pressure;altitude;pressure_sealevel;temperature;humidity
13800;BME280;6971;50.028;9.258;2022-09-14T00:04:14;98597.47;;;15.38;100.00
13800;BME280;6971;50.028;9.258;2022-09-14T00:09:19;98600.13;;;15.38;100.00
13800;BME280;6971;50.028;9.258;2022-09-14T00:14:21;98598.19;;;15.40;100.00
13800;BME280;6971;50.028;9.258;2022-09-14T00:19:24;98592.91;;;15.19;100.00
13800;BME280;6971;50.028;9.258;2022-09-14T00:24:27;98582.59;;;15.25;100.00
13800;BME280;6971;50.028;9.258;2022-09-14T00:29:31;98578.84;;;15.28;100.00
13800;BME280;6971;50.028;9.258;2022-09-14T00:34:33;98586.41;;;15.33;100.00
13800;BME280;6971;50.028;9.258;2022-09-14T00:39:37;98609.59;;;15.31;100.00
13800;BME280;6971;50.028;9.258;2022-09-14T00:49:42;98623.31;;;15.36;100.00
13800;BME280;6971;50.028;9.258;2022-09-14T00:54:50;98598.09;;;15.20;100.00
13800;BME280;6971;50.028;9.258;2022-09-14T00:59:53;98584.00;;;15.20;100.00
13800;BME280;6971;50.028;9.258;2022-09-14T01:04:55;98596.97;;;15.23;100.00
13800;BME280;6971;50.028;9.258;2022-09-14T01:20:52;98561.09;;;15.29;100.00
13800;BME280;6971;50.028;9.258;2022-09-14T01:31:32;98562.66;;;15.31;100.00
13800;BME280;6971;50.028;9.258;2022-09-14T01:36:38;98556.53;;;15.31;100.00
13800;BME280;6971;50.028;9.258;2022-09-14T01:41:41;98558.50;;;15.38;100.00
13800;BME280;6971;50.028;9.258;2022-09-14T01:46:45;98562.69;;;15.41;100.00
13800;BME280;6971;50.028;9.258;2022-09-14T01:51:52;98560.16;;;15.39;100.00
13800;BME280;6971;50.028;9.258;2022-09-14T01:57:01;98549.13;;;15.34;100.00
13800;BME280;6971;50.028;9.258;2022-09-14T02:02:14;98557.66;;;15.38;100.00
13800;BME280;6971;50.028;9.258;2022-09-14T02:07:17;98538.78;;;15.41;100.00
13800;BME280;6971;50.028;9.258;2022-09-14T02:12:19;98527.06;;;15.44;100.00
13800;BME280;6971;50.028;9.258;2022-09-14T02:17:22;98508.34;;;15.45;100.00
13800;BME280;6971;50.028;9.258;2022-09-14T02:22:27;98499.50;;;15.35;100.00
13800;BME280;6971;50.028;9.258;2022-09-14T02:27:29;98501.03;;;15.27;100.00
13800;BME280;6971;50.028;9.258;2022-09-14T02:32:34;98515.72;;;15.42;100.00
13800;BME280;6971;50.028;9.258;2022-09-14T02:37:45;98517.44;;;15.43;100.00
13800;BME280;6971;50.028;9.258;2022-09-14T02:43:04;98519.06;;;15.34;100.00
13800;BME280;6971;50.028;9.258;2022-09-14T02:53:31;98507.63;;;15.43;100.00
13800;BME280;6971;50.028;9.258;2022-09-14T02:58:43;98513.50;;;15.37;100.00
13800;BME280;6971;50.028;9.258;2022-09-14T03:03:44;98502.31;;;15.33;100.00
13800;BME280;6971;50.028;9.258;2022-09-14T03:08:46;98493.66;;;15.41;100.00
13800;BME280;6971;50.028;9.258;2022-09-14T03:13:47;98499.66;;;15.43;100.00
13800;BME280;6971;50.028;9.258;2022-09-14T03:19:07;98495.34;;;15.42;100.00
13800;BME280;6971;50.028;9.258;2022-09-14T03:24:10;98482.06;;;15.42;100.00
13800;BME280;6971;50.028;9.258;2022-09-14T03:29:11;98484.16;;;15.38;100.00
13800;BME280;6971;50.028;9.258;2022-09-14T03:34:13;98484.72;;;15.42;100.00
13800;BME280;6971;50.028;9.258;2022-09-14T03:39:13;98466.28;;;15.40;100.00
13800;BME280;6971;50.028;9.258;2022-09-14T03:44:14;98463.91;;;15.37;100.00
13800;BME280;6971;50.028;9.258;2022-09-14T03:49:15;98459.03;;;15.43;100.00
13800;BME280;6971;50.028;9.258;2022-09-14T03:54:16;98452.84;;;15.32;100.00
13800;BME280;6971;50.028;9.258;2022-09-14T03:59:34;98439.84;;;15.39;100.00
13800;BME280;6971;50.028;9.258;2022-09-14T04:04:34;98435.13;;;15.43;100.00
13800;BME280;6971;50.028;9.258;2022-09-14T04:09:36;98423.66;;;15.42;100.00
13800;BME280;6971;50.028;9.258;2022-09-14T04:14:38;98414.72;;;15.43;100.00
13800;BME280;6971;50.028;9.258;2022-09-14T04:19:40;98419.06;;;15.44;100.00
13800;BME280;6971;50.028;9.258;2022-09-14T04:24:41;98414.56;;;15.45;100.00
13800;BME280;6971;50.028;9.258;2022-09-14T04:29:45;98417.94;;;15.47;100.00
13800;BME280;6971;50.028;9.258;2022-09-14T04:34:48;98426.03;;;15.45;100.00
13800;BME280;6971;50.028;9.258;2022-09-14T04:39:50;98430.09;;;15.39;100.00
13800;BME280;6971;50.028;9.258;2022-09-14T04:45:01;98422.69;;;15.43;100.00
13800;BME280;6971;50.028;9.258;2022-09-14T04:50:04;98416.69;;;15.41;100.00
13800;BME280;6971;50.028;9.258;2022-09-14T04:55:06;98424.38;;;15.44;100.00
13800;BME280;6971;50.028;9.258;2022-09-14T05:00:08;98423.78;;;15.40;100.00
13800;BME280;6971;50.028;9.258;2022-09-14T05:05:09;98422.41;;;15.46;100.00
13800;BME280;6971;50.028;9.258;2022-09-14T05:10:10;98410.81;;;15.47;100.00
13800;BME280;6971;50.028;9.258;2022-09-14T05:15:12;98405.50;;;15.47;100.00
13800;BME280;6971;50.028;9.258;2022-09-14T05:20:13;98408.16;;;15.47;100.00
13800;BME280;6971;50.028;9.258;2022-09-14T05:25:23;98410.13;;;15.55;100.00
13800;BME280;6971;50.028;9.258;2022-09-14T05:30:26;98399.63;;;15.53;100.00
13800;BME280;6971;50.028;9.258;2022-09-14T05:35:27;98396.69;;;15.57;100.00
13800;BME280;6971;50.028;9.258;2022-09-14T05:40:28;98409.28;;;15.55;100.00
13800;BME280;6971;50.028;9.258;2022-09-14T05:45:29;98402.16;;;15.45;100.00
13800;BME280;6971;50.028;9.258;2022-09-14T05:50:31;98406.91;;;15.51;100.00
13800;BME280;6971;50.028;9.258;2022-09-14T05:55:32;98409.00;;;15.58;100.00
13800;BME280;6971;50.028;9.258;2022-09-14T06:00:34;98408.16;;;15.67;100.00
13800;BME280;6971;50.028;9.258;2022-09-14T06:05:35;98410.25;;;15.63;100.00
13800;BME280;6971;50.028;9.258;2022-09-14T06:10:37;98400.06;;;15.59;100.00
13800;BME280;6971;50.028;9.258;2022-09-14T06:15:38;98383.53;;;15.65;100.00
13800;BME280;6971;50.028;9.258;2022-09-14T06:20:48;98380.88;;;15.75;100.00
13800;BME280;6971;50.028;9.258;2022-09-14T06:25:52;98393.44;;;15.83;100.00
13800;BME280;6971;50.028;9.258;2022-09-14T06:30:54;98391.91;;;15.90;100.00
13800;BME280;6971;50.028;9.258;2022-09-14T06:35:57;98384.09;;;15.78;100.00
13800;BME280;6971;50.028;9.258;2022-09-14T06:41:00;98380.59;;;15.78;100.00
13800;BME280;6971;50.028;9.258;2022-09-14T06:51:19;98384.38;;;15.95;100.00
13800;BME280;6971;50.028;9.258;2022-09-14T06:56:21;98367.88;;;15.82;100.00
13800;BME280;6971;50.028;9.258;2022-09-14T07:01:25;98375.44;;;15.86;100.00
13800;BME280;6971;50.028;9.258;2022-09-14T07:06:30;98377.63;;;15.91;100.00
13800;BME280;6971;50.028;9.258;2022-09-14T07:11:32;98377.22;;;16.05;100.00
13800;BME280;6971;50.028;9.258;2022-09-14T07:16:35;98393.19;;;15.96;100.00
13800;BME280;6971;50.028;9.258;2022-09-14T07:21:37;98382.94;;;16.11;100.00
13800;BME280;6971;50.028;9.258;2022-09-14T07:26:39;98397.69;;;16.33;100.00
13800;BME280;6971;50.028;9.258;2022-09-14T07:31:53;98404.25;;;16.39;100.00
13800;BME280;6971;50.028;9.258;2022-09-14T07:36:54;98409.72;;;16.37;100.00
13800;BME280;6971;50.028;9.258;2022-09-14T07:41:55;98409.19;;;16.62;100.00
13800;BME280;6971;50.028;9.258;2022-09-14T07:46:57;98418.56;;;16.66;100.00
13800;BME280;6971;50.028;9.258;2022-09-14T07:52:00;98394.19;;;16.70;100.00
13800;BME280;6971;50.028;9.258;2022-09-14T07:57:02;98392.41;;;16.89;100.00
13800;BME280;6971;50.028;9.258;2022-09-14T08:02:08;98397.88;;;17.16;100.00
13800;BME280;6971;50.028;9.258;2022-09-14T08:07:11;98404.13;;;17.25;100.00
13800;BME280;6971;50.028;9.258;2022-09-14T08:12:15;98403.91;;;17.54;100.00
13800;BME280;6971;50.028;9.258;2022-09-14T08:17:16;98398.72;;;17.53;100.00
13800;BME280;6971;50.028;9.258;2022-09-14T08:22:18;98397.34;;;17.48;100.00
13800;BME280;6971;50.028;9.258;2022-09-14T08:27:19;98412.09;;;17.43;100.00
13800;BME280;6971;50.028;9.258;2022-09-14T08:32:20;98415.84;;;17.50;100.00
13800;BME280;6971;50.028;9.258;2022-09-14T08:37:41;98401.81;;;17.48;100.00
13800;BME280;6971;50.028;9.258;2022-09-14T08:42:43;98407.41;;;17.37;100.00
13800;BME280;6971;50.028;9.258;2022-09-14T08:47:44;98409.75;;;17.40;100.00
13800;BME280;6971;50.028;9.258;2022-09-14T08:52:50;98410.75;;;17.20;100.00
13800;BME280;6971;50.028;9.258;2022-09-14T08:58:29;98424.00;;;17.30;100.00
13800;BME280;6971;50.028;9.258;2022-09-14T09:04:01;98427.34;;;17.51;100.00
13800;BME280;6971;50.028;9.258;2022-09-14T09:14:37;98453.22;;;17.58;100.00
13800;BME280;6971;50.028;9.258;2022-09-14T09:25:01;98450.06;;;17.63;100.00
13800;BME280;6971;50.028;9.258;2022-09-14T09:30:04;98459.06;;;17.80;100.00
13800;BME280;6971;50.028;9.258;2022-09-14T09:35:06;98449.56;;;17.78;100.00
13800;BME280;6971;50.028;9.258;2022-09-14T09:40:26;98432.84;;;17.21;100.00
13800;BME280;6971;50.028;9.258;2022-09-14T09:56:04;98434.25;;;17.43;100.00
13800;BME280;6971;50.028;9.258;2022-09-14T10:01:18;98450.09;;;17.45;100.00
13800;BME280;6971;50.028;9.258;2022-09-14T10:06:20;98435.94;;;17.63;100.00
13800;BME280;6971;50.028;9.258;2022-09-14T10:11:31;98446.19;;;17.75;100.00
13800;BME280;6971;50.028;9.258;2022-09-14T10:16:38;98416.66;;;17.87;100.00
13800;BME280;6971;50.028;9.258;2022-09-14T10:22:19;98400.09;;;18.01;100.00
13800;BME280;6971;50.028;9.258;2022-09-14T10:27:30;98404.75;;;17.99;100.00
13800;BME280;6971;50.028;9.258;2022-09-14T10:32:32;98389.41;;;17.75;100.00
13800;BME280;6971;50.028;9.258;2022-09-14T10:38:03;98381.97;;;17.60;100.00
13800;BME280;6971;50.028;9.258;2022-09-14T10:48:23;98357.53;;;17.65;100.00
13800;BME280;6971;50.028;9.258;2022-09-14T10:53:51;98358.06;;;17.69;100.00
13800;BME280;6971;50.028;9.258;2022-09-14T11:04:29;98350.38;;;17.92;100.00
13800;BME280;6971;50.028;9.258;2022-09-14T11:10:00;98336.59;;;17.70;100.00
13800;BME280;6971;50.028;9.258;2022-09-14T11:25:55;98327.03;;;18.12;100.00
13800;BME280;6971;50.028;9.258;2022-09-14T11:31:38;98319.41;;;18.18;100.00
13800;BME280;6971;50.028;9.258;2022-09-14T11:36:47;98327.53;;;18.43;100.00
13800;BME280;6971;50.028;9.258;2022-09-14T11:41:54;98329.28;;;18.69;100.00
13800;BME280;6971;50.028;9.258;2022-09-14T11:47:11;98329.38;;;19.10;100.00
13800;BME280;6971;50.028;9.258;2022-09-14T11:52:18;98329.22;;;19.12;100.00
13800;BME280;6971;50.028;9.258;2022-09-14T11:57:31;98320.91;;;19.15;100.00
13800;BME280;6971;50.028;9.258;2022-09-14T12:23:31;98327.84;;;18.39;100.00
13800;BME280;6971;50.028;9.258;2022-09-14T12:29:27;98319.47;;;18.34;100.00
13800;BME280;6971;50.028;9.258;2022-09-14T12:34:31;98314.81;;;18.36;100.00
13800;BME280;6971;50.028;9.258;2022-09-14T12:39:34;98319.22;;;18.54;100.00
13800;BME280;6971;50.028;9.258;2022-09-14T12:49:42;98327.22;;;18.54;100.00
13800;BME280;6971;50.028;9.258;2022-09-14T12:54:53;98333.09;;;18.58;100.00
13800;BME280;6971;50.028;9.258;2022-09-14T13:00:14;98339.94;;;18.60;100.00
13800;BME280;6971;50.028;9.258;2022-09-14T13:05:19;98333.09;;;18.58;100.00
13800;BME280;6971;50.028;9.258;2022-09-14T13:15:33;98315.00;;;18.43;100.00
13800;BME280;6971;50.028;9.258;2022-09-14T13:20:36;98310.00;;;18.40;100.00
13800;BME280;6971;50.028;9.258;2022-09-14T13:25:37;98304.78;;;18.30;100.00
13800;BME280;6971;50.028;9.258;2022-09-14T13:30:39;98283.59;;;18.20;100.00
13800;BME280;6971;50.028;9.258;2022-09-14T13:36:03;98270.16;;;18.38;100.00
13800;BME280;6971;50.028;9.258;2022-09-14T13:41:08;98281.25;;;18.25;100.00
13800;BME280;6971;50.028;9.258;2022-09-14T13:46:10;98282.13;;;18.26;100.00
13800;BME280;6971;50.028;9.258;2022-09-14T13:51:12;98259.16;;;18.33;100.00
13800;BME280;6971;50.028;9.258;2022-09-14T13:56:30;98258.81;;;18.36;100.00
13800;BME280;6971;50.028;9.258;2022-09-14T14:01:35;98249.31;;;18.42;100.00
13800;BME280;6971;50.028;9.258;2022-09-14T14:06:37;98234.81;;;18.36;100.00
13800;BME280;6971;50.028;9.258;2022-09-14T14:11:51;98211.63;;;18.29;100.00
13800;BME280;6971;50.028;9.258;2022-09-14T14:27:32;98205.81;;;18.50;100.00
13800;BME280;6971;50.028;9.258;2022-09-14T14:32:34;98194.81;;;18.45;100.00
13800;BME280;6971;50.028;9.258;2022-09-14T14:37:35;98192.47;;;18.25;100.00
13800;BME280;6971;50.028;9.258;2022-09-14T14:42:37;98182.09;;;18.22;100.00
13800;BME280;6971;50.028;9.258;2022-09-14T14:47:39;98201.94;;;18.19;100.00
13800;BME280;6971;50.028;9.258;2022-09-14T14:52:40;98188.25;;;18.14;100.00
13800;BME280;6971;50.028;9.258;2022-09-14T14:57:41;98160.88;;;18.04;100.00
13800;BME280;6971;50.028;9.258;2022-09-14T15:03:02;98153.03;;;17.94;100.00
13800;BME280;6971;50.028;9.258;2022-09-14T15:08:03;98146.53;;;17.96;100.00
13800;BME280;6971;50.028;9.258;2022-09-14T15:13:05;98137.50;;;17.89;100.00
13800;BME280;6971;50.028;9.258;2022-09-14T15:18:06;98140.34;;;17.96;100.00
13800;BME280;6971;50.028;9.258;2022-09-14T15:23:10;98153.00;;;17.85;100.00
13800;BME280;6971;50.028;9.258;2022-09-14T15:28:11;98160.47;;;17.82;100.00
13800;BME280;6971;50.028;9.258;2022-09-14T15:33:13;98151.00;;;17.87;100.00
13800;BME280;6971;50.028;9.258;2022-09-14T15:38:14;98155.47;;;17.79;100.00
13800;BME280;6971;50.028;9.258;2022-09-14T15:43:16;98153.31;;;17.82;100.00
13800;BME280;6971;50.028;9.258;2022-09-14T15:48:18;98148.31;;;17.79;100.00
13800;BME280;6971;50.028;9.258;2022-09-14T15:53:19;98139.63;;;17.77;100.00
13800;BME280;6971;50.028;9.258;2022-09-14T15:58:21;98145.00;;;17.85;100.00
13800;BME280;6971;50.028;9.258;2022-09-14T16:03:41;98142.22;;;17.60;100.00
13800;BME280;6971;50.028;9.258;2022-09-14T16:08:42;98134.00;;;17.80;100.00
13800;BME280;6971;50.028;9.258;2022-09-14T16:13:43;98136.97;;;17.77;100.00
13800;BME280;6971;50.028;9.258;2022-09-14T16:18:46;98134.00;;;17.80;100.00
13800;BME280;6971;50.028;9.258;2022-09-14T16:24:02;98146.00;;;17.84;100.00
13800;BME280;6971;50.028;9.258;2022-09-14T16:29:07;98163.66;;;17.85;100.00
13800;BME280;6971;50.028;9.258;2022-09-14T16:34:26;98170.16;;;17.91;100.00
13800;BME280;6971;50.028;9.258;2022-09-14T16:39:28;98175.63;;;17.81;100.00
13800;BME280;6971;50.028;9.258;2022-09-14T16:44:35;98160.97;;;17.85;100.00
13800;BME280;6971;50.028;9.258;2022-09-14T16:49:36;98169.81;;;17.86;100.00
13800;BME280;6971;50.028;9.258;2022-09-14T16:54:40;98156.00;;;17.91;100.00
13800;BME280;6971;50.028;9.258;2022-09-14T16:59:41;98160.47;;;17.90;100.00
13800;BME280;6971;50.028;9.258;2022-09-14T17:04:42;98153.84;;;17.86;100.00
13800;BME280;6971;50.028;9.258;2022-09-14T17:09:44;98153.66;;;17.79;100.00
13800;BME280;6971;50.028;9.258;2022-09-14T17:14:45;98156.31;;;17.87;100.00
13800;BME280;6971;50.028;9.258;2022-09-14T17:19:47;98160.94;;;17.77;100.00
13800;BME280;6971;50.028;9.258;2022-09-14T17:24:49;98159.63;;;17.81;100.00
13800;BME280;6971;50.028;9.258;2022-09-14T17:29:52;98156.97;;;17.81;100.00
13800;BME280;6971;50.028;9.258;2022-09-14T17:34:53;98150.59;;;17.74;100.00
13800;BME280;6971;50.028;9.258;2022-09-14T17:39:54;98146.78;;;17.77;100.00
13800;BME280;6971;50.028;9.258;2022-09-14T17:44:55;98158.75;;;17.72;100.00
13800;BME280;6971;50.028;9.258;2022-09-14T17:49:57;98154.63;;;17.78;100.00
13800;BME280;6971;50.028;9.258;2022-09-14T17:54:58;98154.44;;;17.71;100.00
13800;BME280;6971;50.028;9.258;2022-09-14T17:59:59;98177.41;;;17.72;100.00
13800;BME280;6971;50.028;9.258;2022-09-14T18:05:02;98184.03;;;17.60;100.00
13800;BME280;6971;50.028;9.258;2022-09-14T18:10:04;98194.00;;;17.58;100.00
13800;BME280;6971;50.028;9.258;2022-09-14T18:15:06;98210.13;;;17.56;100.00
13800;BME280;6971;50.028;9.258;2022-09-14T18:20:09;98205.44;;;17.50;100.00
13800;BME280;6971;50.028;9.258;2022-09-14T18:25:11;98212.06;;;17.46;100.00
13800;BME280;6971;50.028;9.258;2022-09-14T18:30:29;98217.50;;;17.36;100.00
13800;BME280;6971;50.028;9.258;2022-09-14T18:35:30;98226.06;;;17.48;100.00
13800;BME280;6971;50.028;9.258;2022-09-14T18:40:34;98229.06;;;17.45;100.00
13800;BME280;6971;50.028;9.258;2022-09-14T18:45:35;98224.72;;;17.44;100.00
13800;BME280;6971;50.028;9.258;2022-09-14T18:50:38;98216.03;;;17.42;100.00
13800;BME280;6971;50.028;9.258;2022-09-14T18:55:40;98220.06;;;17.46;100.00
13800;BME280;6971;50.028;9.258;2022-09-14T19:00:42;98224.09;;;17.50;100.00
13800;BME280;6971;50.028;9.258;2022-09-14T19:05:47;98228.91;;;17.46;100.00
13800;BME280;6971;50.028;9.258;2022-09-14T19:10:48;98239.56;;;17.46;100.00
13800;BME280;6971;50.028;9.258;2022-09-14T19:15:49;98252.69;;;17.48;100.00
13800;BME280;6971;50.028;9.258;2022-09-14T19:20:51;98253.09;;;17.35;100.00
13800;BME280;6971;50.028;9.258;2022-09-14T19:25:52;98244.91;;;17.28;100.00
13800;BME280;6971;50.028;9.258;2022-09-14T19:30:53;98247.88;;;17.25;100.00
13800;BME280;6971;50.028;9.258;2022-09-14T19:35:54;98246.34;;;17.22;100.00
13800;BME280;6971;50.028;9.258;2022-09-14T19:41:15;98257.84;;;17.23;100.00
13800;BME280;6971;50.028;9.258;2022-09-14T19:46:18;98260.50;;;17.23;100.00
13800;BME280;6971;50.028;9.258;2022-09-14T19:51:23;98270.09;;;17.16;100.00
13800;BME280;6971;50.028;9.258;2022-09-14T19:56:27;98272.91;;;17.14;100.00
13800;BME280;6971;50.028;9.258;2022-09-14T20:01:30;98273.75;;;17.15;100.00
13800;BME280;6971;50.028;9.258;2022-09-14T20:06:34;98290.03;;;17.12;100.00
13800;BME280;6971;50.028;9.258;2022-09-14T20:11:36;98300.00;;;17.09;100.00
13800;BME280;6971;50.028;9.258;2022-09-14T20:16:43;98289.25;;;17.01;100.00
13800;BME280;6971;50.028;9.258;2022-09-14T20:21:46;98288.72;;;16.98;100.00
13800;BME280;6971;50.028;9.258;2022-09-14T20:26:49;98269.88;;;16.91;100.00
13800;BME280;6971;50.028;9.258;2022-09-14T20:31:51;98279.66;;;16.90;100.00
13800;BME280;6971;50.028;9.258;2022-09-14T20:36:52;98279.44;;;16.83;100.00
13800;BME280;6971;50.028;9.258;2022-09-14T20:41:54;98273.97;;;16.85;100.00
13800;BME280;6971;50.028;9.258;2022-09-14T20:46:55;98267.94;;;16.83;100.00
13800;BME280;6971;50.028;9.258;2022-09-14T20:51:56;98274.03;;;16.75;100.00
13800;BME280;6971;50.028;9.258;2022-09-14T20:56:58;98275.94;;;16.65;100.00
13800;BME280;6971;50.028;9.258;2022-09-14T21:01:59;98281.69;;;16.60;100.00
13800;BME280;6971;50.028;9.258;2022-09-14T21:07:00;98286.47;;;16.56;100.00
13800;BME280;6971;50.028;9.258;2022-09-14T21:12:01;98286.25;;;16.50;100.00
13800;BME280;6971;50.028;9.258;2022-09-14T21:17:02;98298.25;;;16.54;100.00
13800;BME280;6971;50.028;9.258;2022-09-14T21:22:04;98286.75;;;16.53;100.00
13800;BME280;6971;50.028;9.258;2022-09-14T21:27:05;98293.69;;;16.46;100.00
13800;BME280;6971;50.028;9.258;2022-09-14T21:32:07;98299.38;;;16.51;100.00
13800;BME280;6971;50.028;9.258;2022-09-14T21:37:07;98298.69;;;16.49;100.00
13800;BME280;6971;50.028;9.258;2022-09-14T21:42:08;98296.34;;;16.46;100.00
13800;BME280;6971;50.028;9.258;2022-09-14T21:47:09;98303.56;;;16.54;100.00
13800;BME280;6971;50.028;9.258;2022-09-14T21:52:10;98303.84;;;16.51;100.00
13800;BME280;6971;50.028;9.258;2022-09-14T21:57:11;98307.13;;;16.44;100.00
13800;BME280;6971;50.028;9.258;2022-09-14T22:02:12;98309.53;;;16.38;100.00
13800;BME280;6971;50.028;9.258;2022-09-14T22:07:13;98309.72;;;16.26;100.00
13800;BME280;6971;50.028;9.258;2022-09-14T22:12:14;98308.34;;;16.22;100.00
13800;BME280;6971;50.028;9.258;2022-09-14T22:17:15;98310.06;;;16.13;100.00
13800;BME280;6971;50.028;9.258;2022-09-14T22:22:17;98304.59;;;16.15;100.00
13800;BME280;6971;50.028;9.258;2022-09-14T22:27:18;98303.75;;;16.14;100.00
13800;BME280;6971;50.028;9.258;2022-09-14T22:32:19;98297.34;;;16.07;100.00
13800;BME280;6971;50.028;9.258;2022-09-14T22:37:22;98292.50;;;16.02;100.00
13800;BME280;6971;50.028;9.258;2022-09-14T22:42:22;98304.50;;;16.07;100.00
13800;BME280;6971;50.028;9.258;2022-09-14T22:47:24;98309.56;;;16.00;100.00
13800;BME280;6971;50.028;9.258;2022-09-14T22:52:24;98307.03;;;15.98;100.00
13800;BME280;6971;50.028;9.258;2022-09-14T22:57:25;98311.63;;;16.06;100.00
13800;BME280;6971;50.028;9.258;2022-09-14T23:02:27;98303.50;;;16.08;100.00
13800;BME280;6971;50.028;9.258;2022-09-14T23:07:29;98301.84;;;16.07;100.00
13800;BME280;6971;50.028;9.258;2022-09-14T23:12:31;98309.50;;;16.10;100.00
13800;BME280;6971;50.028;9.258;2022-09-14T23:17:32;98317.44;;;16.20;100.00
13800;BME280;6971;50.028;9.258;2022-09-14T23:22:33;98321.66;;;16.12;100.00
13800;BME280;6971;50.028;9.258;2022-09-14T23:27:34;98321.34;;;16.25;100.00
13800;BME280;6971;50.028;9.258;2022-09-14T23:32:36;98321.91;;;16.19;100.00
13800;BME280;6971;50.028;9.258;2022-09-14T23:37:37;98320.94;;;16.20;100.00
13800;BME280;6971;50.028;9.258;2022-09-14T23:42:38;98318.19;;;16.12;100.00
13800;BME280;6971;50.028;9.258;2022-09-14T23:47:39;98318.06;;;16.03;100.00
13800;BME280;6971;50.028;9.258;2022-09-14T23:52:40;98313.44;;;16.05;100.00
13800;BME280;6971;50.028;9.258;2022-09-14T23:57:41;98305.78;;;16.02;100.00
